NOAA Web Site Link Tides and Currents Home Page Transparent placeholder image

Parts of the U.S. Government are closed. However, because the information this site provides is necessary to protect life and property, it will be updated and maintained during the Federal Government shutdown. For critical weather information, please visit www.weather.gov. To learn more, see www.commerce.gov.

PORTS® Data Listing: 8551762 Delaware City, DE

CO-OPS RAW PORTS DATA

************************      PRELIMINARY DATA      ************************** 

     THIS RAW DATA HAS NOT BEEN SUBJECT TO THE NATIONAL OCEAN SERVICE'S        
     QUALITY CONTROL OR QUALITY ASSURANCE PROCEDURES AND DOES NOT MEET         
     THE CRITERIA AND STANDARDS OF OFFICIAL NATIONAL OCEAN SERVICE             
     DATA.  IT IS RELEASED FOR LIMITED PUBLIC USE AS PRELIMINARY DATA TO       
     BE USED ONLY WITH APPROPRIATE CAUTION.                                    

************************      PRELIMINARY DATA      ************************** 


       CD   -   Calendar date
       T    -   Time
       TZ   -   Timezone
       PW   -   Predicted water level (feet above MLLW)
       OW   -   Observed water level (feet above MLLW)
       WS   -   Wind speed (knots)
       WD   -   Wind direction (degrees true)
       WG   -   Wind gust (knots)
       AT   -   Air temperature (degrees farenheit)
       WT   -   Water temperature (degrees farenheit)
       AP   -   Air pressure (millibars)
       SA   -   Salinty (PSU - Practical Salinity Units)
       SG   -   Specific gravity
       RH   -   Relative humidity
       AG   -   Air gap (feet)
       VI   -   Visibility (nautical miles)

       ** NOTE **
       A variable that has its data fields filled with "9"s, indicates that
       data was not collected for that sample period.
       **********


STATION NAME: Delaware City (8551762)
****************************************************************************************************
    CD       T    TZ    PW     OW    WS   WD   WG    AT    WT    AP    SA    SG     RH    AG   VI
****************************************************************************************************
2019/01/22 06:12 EST   -0.71  -2.61    7  333   11  15.3  29.3 1037.9 -9.9 -9.999 -99.9 -99.99 -9.99
2019/01/22 06:18 EST   -0.72  -2.66    7  342   11  15.3  29.1 1038.1 -9.9 -9.999 -99.9 -99.99 -9.99
2019/01/22 06:24 EST   -0.73  -2.71    5  337   12  15.4  28.9 1038.0 -9.9 -9.999 -99.9 -99.99 -9.99
2019/01/22 06:30 EST   -0.72  -2.75    8  338   10  15.1  28.8 1037.9 -9.9 -9.999 -99.9 -99.99 -9.99
2019/01/22 06:36 EST   -0.70  -2.78    9  344   12  15.1  28.8 1038.2 -9.9 -9.999 -99.9 -99.99 -9.99
2019/01/22 06:42 EST   -0.67  -2.81    8  343   10  15.3  28.6 1038.3 -9.9 -9.999 -99.9 -99.99 -9.99
2019/01/22 06:48 EST   -0.63  -2.83    7  314   11  14.9  28.6 1038.4 -9.9 -9.999 -99.9 -99.99 -9.99
2019/01/22 06:54 EST   -0.58  -2.83    7  337   11  15.1  28.4 1038.5 -9.9 -9.999 -99.9 -99.99 -9.99
2019/01/22 07:00 EST   -0.51  -2.82    7  336   10  15.1  28.6 1038.7 -9.9 -9.999 -99.9 -99.99 -9.99
2019/01/22 07:06 EST   -0.44  -2.77    7  328   10  14.7  28.8 1038.7 -9.9 -9.999 -99.9 -99.99 -9.99
2019/01/22 07:12 EST   -0.35  -2.69    7  337   10  15.1  28.8 1038.8 -9.9 -9.999 -99.9 -99.99 -9.99
2019/01/22 07:18 EST   -0.24  -2.57    8  316   11  14.5  28.8 1039.1 -9.9 -9.999 -99.9 -99.99 -9.99
2019/01/22 07:24 EST   -0.13  -2.40    5  294    8  13.6  28.9 1039.4 -9.9 -9.999 -99.9 -99.99 -9.99
2019/01/22 07:30 EST    0.00  -2.20    4  286    9  13.5  28.9 1039.5 -9.9 -9.999 -99.9 -99.99 -9.99
2019/01/22 07:36 EST    0.14  -1.98    4  283    6  13.5  28.9 1039.8 -9.9 -9.999 -99.9 -99.99 -9.99
2019/01/22 07:42 EST    0.29  -1.74    4  297    7  14.0  29.1 1039.9 -9.9 -9.999 -99.9 -99.99 -9.99
2019/01/22 07:48 EST    0.45  -1.52    5  299    7  14.2  29.1 1040.1 -9.9 -9.999 -99.9 -99.99 -9.99
2019/01/22 07:54 EST    0.61  -1.34    6  300    8  14.4  29.1 1040.2 -9.9 -9.999 -99.9 -99.99 -9.99
2019/01/22 08:00 EST    0.79  -1.12    7  314    9  14.7  29.1 1040.2 -9.9 -9.999 -99.9 -99.99 -9.99
2019/01/22 08:06 EST    0.97  -0.94    7  309    9  14.7  29.1 1040.1 -9.9 -9.999 -99.9 -99.99 -9.99
2019/01/22 08:12 EST    1.16  -0.76    7  312    9  14.9  29.1 1040.1 -9.9 -9.999 -99.9 -99.99 -9.99
2019/01/22 08:18 EST    1.35  -0.56    6  314    9  15.6  29.1 1040.1 -9.9 -9.999 -99.9 -99.99 -9.99
2019/01/22 08:24 EST    1.54  -0.34    7  341    9  16.0  29.3 1040.0 -9.9 -9.999 -99.9 -99.99 -9.99
2019/01/22 08:30 EST    1.74  -0.15    7  324   11  15.8  29.3 1040.1 -9.9 -9.999 -99.9 -99.99 -9.99
2019/01/22 08:36 EST    1.94   0.04    9  329   12  15.8  29.1 1040.2 -9.9 -9.999 -99.9 -99.99 -9.99
2019/01/22 08:42 EST    2.14   0.25    8  345   11  16.0  29.1 1040.1 -9.9 -9.999 -99.9 -99.99 -9.99
2019/01/22 08:48 EST    2.34   0.44    8  332   12  16.2  28.9 1040.2 -9.9 -9.999 -99.9 -99.99 -9.99
2019/01/22 08:54 EST    2.53   0.64    7  332   12  16.2  28.9 1040.1 -9.9 -9.999 -99.9 -99.99 -9.99
2019/01/22 09:00 EST    2.73   0.82    8  336   12  16.5  29.1 1039.9 -9.9 -9.999 -99.9 -99.99 -9.99
2019/01/22 09:06 EST    2.92   1.03   10  342   13  16.3  29.1 1040.0 -9.9 -9.999 -99.9 -99.99 -9.99
2019/01/22 09:12 EST    3.11   1.23    8  342   11  16.5  29.1 1040.2 -9.9 -9.999 -99.9 -99.99 -9.99
2019/01/22 09:18 EST    3.29   1.42    9  353   12  16.2  29.1 1040.1 -9.9 -9.999 -99.9 -99.99 -9.99
2019/01/22 09:24 EST    3.47   1.60    9    2   12  17.1  29.3 1040.0 -9.9 -9.999 -99.9 -99.99 -9.99
2019/01/22 09:30 EST    3.64   1.78    9  351   12  16.9  29.3 1040.1 -9.9 -9.999 -99.9 -99.99 -9.99
2019/01/22 09:36 EST    3.81   1.98    9  352   13  17.2  29.3 1040.2 -9.9 -9.999 -99.9 -99.99 -9.99
2019/01/22 09:42 EST    3.97   2.17    8  346   11  18.0  29.3 1040.2 -9.9 -9.999 -99.9 -99.99 -9.99
2019/01/22 09:48 EST    4.13   2.35    8  346   11  18.0  29.3 1040.2 -9.9 -9.999 -99.9 -99.99 -9.99
2019/01/22 09:54 EST    4.28   2.55    5  317    8  18.1  29.3 1040.3 -9.9 -9.999 -99.9 -99.99 -9.99
2019/01/22 10:00 EST    4.43   2.71    4  348    6  18.5  29.3 1040.5 -9.9 -9.999 -99.9 -99.99 -9.99
2019/01/22 10:06 EST    4.57   2.90    6  340    8  18.7  29.3 1040.6 -9.9 -9.999 -99.9 -99.99 -9.99
2019/01/22 10:12 EST    4.70   3.10    7  351    8  19.0  29.1 1040.5 -9.9 -9.999 -99.9 -99.99 -9.99
2019/01/22 10:18 EST    4.83   3.23    7  350    9  19.4  29.1 1040.6 -9.9 -9.999 -99.9 -99.99 -9.99
2019/01/22 10:24 EST    4.95   3.39    5  346    8  19.6  29.1 1040.6 -9.9 -9.999 -99.9 -99.99 -9.99
2019/01/22 10:30 EST    5.06   3.54    5  345    9  19.9  29.1 1040.7 -9.9 -9.999 -99.9 -99.99 -9.99
2019/01/22 10:36 EST    5.17   3.69    4  349    6  20.1  29.1 1040.6 -9.9 -9.999 -99.9 -99.99 -9.99
2019/01/22 10:42 EST    5.27   3.86    4    3    6  20.1  29.1 1040.6 -9.9 -9.999 -99.9 -99.99 -9.99
2019/01/22 10:48 EST    5.37   3.98    4  342    6  20.5  29.3 1040.6 -9.9 -9.999 -99.9 -99.99 -9.99
2019/01/22 10:54 EST    5.46   4.11    4    7    5  20.3  29.3 1040.6 -9.9 -9.999 -99.9 -99.99 -9.99
2019/01/22 11:00 EST    5.54   4.23    4   22    5  20.8  29.3 1040.5 -9.9 -9.999 -99.9 -99.99 -9.99
2019/01/22 11:06 EST    5.62   4.35    5   14    7  20.8  29.3 1040.6 -9.9 -9.999 -99.9 -99.99 -9.99
2019/01/22 11:12 EST    5.69   4.49    4    5    7  21.0  29.3 1040.5 -9.9 -9.999 -99.9 -99.99 -9.99
2019/01/22 11:18 EST    5.75   4.58    2  352    5  21.4  29.3 1040.6 -9.9 -9.999 -99.9 -99.99 -9.99
2019/01/22 11:24 EST    5.81   4.70    2   47    4  21.2  29.3 1040.5 -9.9 -9.999 -99.9 -99.99 -9.99
2019/01/22 11:30 EST    5.85   4.79    3   15    4  21.4  29.5 1040.3 -9.9 -9.999 -99.9 -99.99 -9.99
2019/01/22 11:36 EST    5.89   4.88    2   32    5  21.7  29.5 1040.2 -9.9 -9.999 -99.9 -99.99 -9.99
2019/01/22 11:42 EST    5.92   4.99    4   46    5  21.7  29.5 1039.9 -9.9 -9.999 -99.9 -99.99 -9.99
2019/01/22 11:48 EST    5.94   5.00    5   51    6  21.6  29.5 1039.7 -9.9 -9.999 -99.9 -99.99 -9.99
2019/01/22 11:54 EST    5.96   5.14    4   38    5  21.9  29.5 1039.5 -9.9 -9.999 -99.9 -99.99 -9.99
2019/01/22 12:00 EST    5.96   5.22    4   36    5  22.5  29.5 1039.6 -9.9 -9.999 -99.9 -99.99 -9.99
2019/01/22 12:06 EST    5.96   5.22    2   47    4  22.6  29.7 1039.5 -9.9 -9.999 -99.9 -99.99 -9.99
2019/01/22 12:12 EST    5.94   5.29    2   24    4  23.0  29.7 1039.5 -9.9 -9.999 -99.9 -99.99 -9.99
2019/01/22 12:18 EST    5.92   5.32    2   29    4  23.2  29.7 1039.3 -9.9 -9.999 -99.9 -99.99 -9.99
2019/01/22 12:24 EST    5.89   5.33    2   40    3  23.5  29.8 1039.2 -9.9 -9.999 -99.9 -99.99 -9.99
2019/01/22 12:30 EST    5.85   5.34    3   50    3  23.5  29.8 1039.2 -9.9 -9.999 -99.9 -99.99 -9.99
2019/01/22 12:36 EST    5.80   5.33    2   11    3  23.9  29.8 1039.1 -9.9 -9.999 -99.9 -99.99 -9.99
2019/01/22 12:42 EST    5.74   5.29    3    9    4  24.3  29.8 1039.0 -9.9 -9.999 -99.9 -99.99 -9.99
2019/01/22 12:48 EST    5.68   5.25    2   32    3  24.4  30.0 1039.1 -9.9 -9.999 -99.9 -99.99 -9.99
2019/01/22 12:54 EST    5.61   5.22    4   22    4  24.6  30.0 1039.0 -9.9 -9.999 -99.9 -99.99 -9.99
2019/01/22 13:00 EST    5.53   5.14    4   30    4  24.8  30.2 1038.7 -9.9 -9.999 -99.9 -99.99 -9.99
2019/01/22 13:06 EST    5.44   5.07    3   44    4  25.0  30.2 1038.6 -9.9 -9.999 -99.9 -99.99 -9.99
2019/01/22 13:12 EST    5.35   4.98    3   53    4  25.2  30.0 1038.5 -9.9 -9.999 -99.9 -99.99 -9.99
2019/01/22 13:18 EST    5.26   4.88    2   47    4  25.7  30.0 1038.5 -9.9 -9.999 -99.9 -99.99 -9.99
2019/01/22 13:24 EST    5.15   4.77    3   60    3  26.1  30.0 1038.4 -9.9 -9.999 -99.9 -99.99 -9.99
2019/01/22 13:30 EST    5.05   4.64    3  129    3  26.6  30.0 1038.3 -9.9 -9.999 -99.9 -99.99 -9.99
2019/01/22 13:36 EST    4.94   4.51    3   93    4  26.6  30.0 1038.2 -9.9 -9.999 -99.9 -99.99 -9.99
2019/01/22 13:42 EST    4.83   4.36    2   74    3  27.0  29.8 1038.0 -9.9 -9.999 -99.9 -99.99 -9.99
2019/01/22 13:48 EST    4.71   4.22    4   58    4  27.1  29.8 1038.0 -9.9 -9.999 -99.9 -99.99 -9.99
2019/01/22 13:54 EST    4.59   4.07    3   39    4  27.3  29.8 1038.1 -9.9 -9.999 -99.9 -99.99 -9.99
2019/01/22 14:00 EST    4.47   3.91    2   54    3  27.7  29.8 1038.1 -9.9 -9.999 -99.9 -99.99 -9.99
2019/01/22 14:06 EST    4.35   3.74    2   83    3  28.2  29.8 1038.2 -9.9 -9.999 -99.9 -99.99 -9.99
2019/01/22 14:12 EST    4.23   3.59    2  116    3  28.6  29.8 1038.1 -9.9 -9.999 -99.9 -99.99 -9.99
2019/01/22 14:18 EST    4.11   3.42    4  123    6  28.2  29.8 1038.0 -9.9 -9.999 -99.9 -99.99 -9.99
2019/01/22 14:24 EST    3.99   3.26    5  109    6  28.4  29.8 1037.9 -9.9 -9.999 -99.9 -99.99 -9.99
2019/01/22 14:30 EST    3.87   3.10    7  121    8  27.9  29.8 1037.7 -9.9 -9.999 -99.9 -99.99 -9.99
2019/01/22 14:36 EST    3.75   2.94    7  124    8  27.9  29.8 1037.6 -9.9 -9.999 -99.9 -99.99 -9.99
2019/01/22 14:42 EST    3.63   2.78    6  129    8  27.9  29.8 1037.6 -9.9 -9.999 -99.9 -99.99 -9.99
2019/01/22 14:48 EST    3.51   2.61    6  136    7  28.0  29.8 1037.6 -9.9 -9.999 -99.9 -99.99 -9.99
2019/01/22 14:54 EST    3.39   2.47    6  129    8  28.2  29.8 1037.5 -9.9 -9.999 -99.9 -99.99 -9.99
2019/01/22 15:00 EST    3.27   2.31    5  124    6  28.6  29.8 1037.5 -9.9 -9.999 -99.9 -99.99 -9.99
2019/01/22 15:06 EST    3.16   2.18    6  126    6  28.8  29.8 1037.4 -9.9 -9.999 -99.9 -99.99 -9.99
2019/01/22 15:12 EST    3.05   2.04    7  123    8  29.1  29.8 1037.3 -9.9 -9.999 -99.9 -99.99 -9.99
2019/01/22 15:18 EST    2.94   1.92    7  122    8  29.1  29.8 1037.2 -9.9 -9.999 -99.9 -99.99 -9.99
2019/01/22 15:24 EST    2.83   1.80    4  138    8  30.4  29.8 1037.3 -9.9 -9.999 -99.9 -99.99 -9.99
2019/01/22 15:30 EST    2.72   1.67    4  182    6  32.4  29.8 1037.4 -9.9 -9.999 -99.9 -99.99 -9.99
2019/01/22 15:36 EST    2.61   1.55    3  218    6  32.4  29.8 1037.4 -9.9 -9.999 -99.9 -99.99 -9.99
2019/01/22 15:42 EST    2.50   1.43    4  193    5  32.4  30.0 1037.4 -9.9 -9.999 -99.9 -99.99 -9.99
2019/01/22 15:48 EST    2.40   1.31    4  215    5  31.8  30.0 1037.3 -9.9 -9.999 -99.9 -99.99 -9.99
2019/01/22 15:54 EST    2.29   1.20    3  187    6  32.5  30.0 1037.3 -9.9 -9.999 -99.9 -99.99 -9.99
2019/01/22 16:00 EST    2.19   1.08    3  176    6  32.5  30.0 1037.2 -9.9 -9.999 -99.9 -99.99 -9.99
2019/01/22 16:06 EST    2.09   0.97    4  169    6  32.0  30.0 1037.1 -9.9 -9.999 -99.9 -99.99 -9.99
2019/01/22 16:12 EST    1.98   0.87    3  185    5  32.5  30.0 1037.1 -9.9 -9.999 -99.9 -99.99 -9.99
2019/01/22 16:18 EST    1.88   0.76    2  197    6  32.2  30.0 1037.3 -9.9 -9.999 -99.9 -99.99 -9.99
2019/01/22 16:24 EST    1.78   0.66    3  211    4  31.6  30.0 1037.3 -9.9 -9.999 -99.9 -99.99 -9.99
2019/01/22 16:30 EST    1.68   0.56    3  244    5  30.7  30.0 1037.3 -9.9 -9.999 -99.9 -99.99 -9.99
2019/01/22 16:36 EST    1.57   0.46    5  202    6  30.6  29.8 1037.1 -9.9 -9.999 -99.9 -99.99 -9.99
2019/01/22 16:42 EST    1.47   0.36    4  190    6  30.6  30.4 1037.0 -9.9 -9.999 -99.9 -99.99 -9.99
2019/01/22 16:48 EST    1.37   0.27    2  201    5  30.0  30.9 1036.9 -9.9 -9.999 -99.9 -99.99 -9.99
2019/01/22 16:54 EST    1.26   0.18    3  215    4  29.7  31.5 1036.9 -9.9 -9.999 -99.9 -99.99 -9.99
2019/01/22 17:00 EST    1.16   0.08    2  224    4  29.5  31.8 1037.1 -9.9 -9.999 -99.9 -99.99 -9.99
2019/01/22 17:06 EST    1.05  -0.01    2  210    4  29.3  31.6 1037.0 -9.9 -9.999 -99.9 -99.99 -9.99
2019/01/22 17:12 EST    0.94  -0.10    2  232    4  29.1  31.3 1037.1 -9.9 -9.999 -99.9 -99.99 -9.99
2019/01/22 17:18 EST    0.84  -0.18    2  221    4  29.1  31.8 1037.3 -9.9 -9.999 -99.9 -99.99 -9.99
2019/01/22 17:24 EST    0.73  -0.27    2  226    3  28.9  32.2 1037.3 -9.9 -9.999 -99.9 -99.99 -9.99
2019/01/22 17:30 EST    0.62  -0.34    2  206    4  28.9  32.4 1037.2 -9.9 -9.999 -99.9 -99.99 -9.99
2019/01/22 17:36 EST    0.51  -0.42    2  209    4  28.8  32.2 1037.1 -9.9 -9.999 -99.9 -99.99 -9.99
2019/01/22 17:42 EST    0.41  -0.50    2  213    4  28.6  32.0 1037.2 -9.9 -9.999 -99.9 -99.99 -9.99
2019/01/22 17:48 EST    0.30  -0.59    3  225    5  28.6  32.0 1037.2 -9.9 -9.999 -99.9 -99.99 -9.99
2019/01/22 17:54 EST    0.20  -0.66    2  218    4  28.2  31.8 1037.2 -9.9 -9.999 -99.9 -99.99 -9.99
2019/01/22 18:00 EST    0.09  -0.74    3  233    4  28.2  31.8 1037.3 -9.9 -9.999 -99.9 -99.99 -9.99
2019/01/22 18:06 EST   -0.01  -0.80    3  215    4  28.0  31.6 1036.9 -9.9 -9.999 -99.9 -99.99 -9.99
2019/01/22 18:12 EST   -0.10  -0.88    2  213    3  28.0  31.6 1036.8 -9.9 -9.999 -99.9 -99.99 -9.99
2019/01/22 18:18 EST   -0.19  -0.93    2  189    3  28.0  31.6 1036.7 -9.9 -9.999 -99.9 -99.99 -9.99
2019/01/22 18:24 EST   -0.28  -1.00    2  200    3  28.0  31.6 1036.8 -9.9 -9.999 -99.9 -99.99 -9.99
2019/01/22 18:30 EST   -0.36  -1.06    3  203    3  27.9  31.6 1036.8 -9.9 -9.999 -99.9 -99.99 -9.99
2019/01/22 18:36 EST   -0.43  -1.11    2  208    4  27.9  31.6 1037.0 -9.9 -9.999 -99.9 -99.99 -9.99
2019/01/22 18:42 EST   -0.49  -1.18    3  197    3  27.9  31.5 1036.8 -9.9 -9.999 -99.9 -99.99 -9.99
2019/01/22 18:48 EST   -0.55  -1.23    2  190    4  28.0  31.5 1036.9 -9.9 -9.999 -99.9 -99.99 -9.99
2019/01/22 18:54 EST   -0.59  -1.28    2  193    4  27.9  31.5 1036.9 -9.9 -9.999 -99.9 -99.99 -9.99
2019/01/22 19:00 EST   -0.63  -1.33    2  190    4  28.0  31.5 1036.9 -9.9 -9.999 -99.9 -99.99 -9.99
2019/01/22 19:06 EST   -0.65  -1.39    3  192    4  28.0  31.5 1037.0 -9.9 -9.999 -99.9 -99.99 -9.99
2019/01/22 19:12 EST   -0.66  -1.43    2  183    3  28.0  31.5 1037.0 -9.9 -9.999 -99.9 -99.99 -9.99
2019/01/22 19:18 EST   -0.66  -1.47    3  186    4  28.0  31.3 1036.9 -9.9 -9.999 -99.9 -99.99 -9.99
2019/01/22 19:24 EST   -0.65  -1.50    3  188    4  28.0  31.3 1036.9 -9.9 -9.999 -99.9 -99.99 -9.99
2019/01/22 19:30 EST   -0.62  -1.53    2  197    3  27.9  31.3 1037.0 -9.9 -9.999 -99.9 -99.99 -9.99
2019/01/22 19:36 EST   -0.58  -1.55    2  211    4  27.9  31.3 1037.0 -9.9 -9.999 -99.9 -99.99 -9.99
2019/01/22 19:42 EST   -0.53  -1.57    2  203    4  27.7  31.3 1036.9 -9.9 -9.999 -99.9 -99.99 -9.99
2019/01/22 19:48 EST   -0.47  -1.56    3  198    4  27.7  31.3 1036.7 -9.9 -9.999 -99.9 -99.99 -9.99
2019/01/22 19:54 EST   -0.39  -1.52    3  199    5  27.5  31.3 1036.7 -9.9 -9.999 -99.9 -99.99 -9.99
2019/01/22 20:00 EST   -0.30  -1.44    3  187    4  27.5  31.3 1036.6 -9.9 -9.999 -99.9 -99.99 -9.99
2019/01/22 20:06 EST   -0.20  -1.32    3  207    4  27.5  31.3 1036.7 -9.9 -9.999 -99.9 -99.99 -9.99
2019/01/22 20:12 EST   -0.09  -1.15    2  204    4  27.3  31.1 1036.7 -9.9 -9.999 -99.9 -99.99 -9.99
2019/01/22 20:18 EST    0.03  -0.92    2  211    3  27.3  31.1 1036.6 -9.9 -9.999 -99.9 -99.99 -9.99
2019/01/22 20:24 EST    0.16  -0.68    3  187    4  27.3  30.9 1036.5 -9.9 -9.999 -99.9 -99.99 -9.99
2019/01/22 20:30 EST    0.30  -0.45    3  176    5  27.3  30.9 1036.4 -9.9 -9.999 -99.9 -99.99 -9.99
2019/01/22 20:36 EST    0.45  -0.21    3  190    4  27.3  30.7 1036.5 -9.9 -9.999 -99.9 -99.99 -9.99
2019/01/22 20:42 EST    0.60   0.01    3  179    4  27.3  30.7 1036.3 -9.9 -9.999 -99.9 -99.99 -9.99
2019/01/22 20:48 EST    0.76   0.23    3  169    4  27.5  30.7 1036.0 -9.9 -9.999 -99.9 -99.99 -9.99
2019/01/22 20:54 EST    0.92   0.49    3  180    5  27.7  30.7 1036.0 -9.9 -9.999 -99.9 -99.99 -9.99
2019/01/22 21:00 EST    1.08   0.72    4  178    7  27.9  30.6 1036.0 -9.9 -9.999 -99.9 -99.99 -9.99
2019/01/22 21:06 EST    1.25   0.94    4  185    7  27.9  30.6 1035.8 -9.9 -9.999 -99.9 -99.99 -9.99
2019/01/22 21:12 EST    1.42   1.16    5  179    7  28.2  30.6 1035.6 -9.9 -9.999 -99.9 -99.99 -9.99
2019/01/22 21:18 EST    1.58   1.36    5  179    6  28.2  30.6 1035.5 -9.9 -9.999 -99.9 -99.99 -9.99
2019/01/22 21:24 EST    1.75   1.58    4  185    6  28.2  30.6 1035.5 -9.9 -9.999 -99.9 -99.99 -9.99
2019/01/22 21:30 EST    1.92   1.79    3  203    5  28.2  30.6 1035.8 -9.9 -9.999 -99.9 -99.99 -9.99
2019/01/22 21:36 EST    2.09   1.99    3  195    6  28.2  30.6 1035.7 -9.9 -9.999 -99.9 -99.99 -9.99
2019/01/22 21:42 EST    2.25   2.18    3  196    5  28.4  30.7 1035.7 -9.9 -9.999 -99.9 -99.99 -9.99
2019/01/22 21:48 EST    2.41   2.37    3  192    5  28.2  30.7 1035.8 -9.9 -9.999 -99.9 -99.99 -9.99
2019/01/22 21:54 EST    2.57   2.54    3  187    4  28.2  30.7 1035.7 -9.9 -9.999 -99.9 -99.99 -9.99
2019/01/22 22:00 EST    2.72   2.72    3  183    5  28.0  30.7 1035.6 -9.9 -9.999 -99.9 -99.99 -9.99
2019/01/22 22:06 EST    2.87   2.88    2  192    4  28.0  30.7 1035.7 -9.9 -9.999 -99.9 -99.99 -9.99
2019/01/22 22:12 EST    3.02   3.05    2  201    5  27.9  30.6 1035.9 -9.9 -9.999 -99.9 -99.99 -9.99
2019/01/22 22:18 EST    3.16   3.21    3  206    5  27.9  30.6 1036.2 -9.9 -9.999 -99.9 -99.99 -9.99
2019/01/22 22:24 EST    3.30   3.38    3  199    5  27.9  30.6 1036.2 -9.9 -9.999 -99.9 -99.99 -9.99
2019/01/22 22:30 EST    3.43   3.55    4  187    6  27.9  30.6 1036.0 -9.9 -9.999 -99.9 -99.99 -9.99
2019/01/22 22:36 EST    3.56   3.72    4  191    5  27.7  30.6 1036.0 -9.9 -9.999 -99.9 -99.99 -9.99
2019/01/22 22:42 EST    3.69   3.86    4  181    7  27.7  30.6 1035.9 -9.9 -9.999 -99.9 -99.99 -9.99
2019/01/22 22:48 EST    3.81   4.02    5  177    7  27.7  30.6 1035.7 -9.9 -9.999 -99.9 -99.99 -9.99
2019/01/22 22:54 EST    3.93   4.15    5  181    7  27.5  30.6 1035.6 -9.9 -9.999 -99.9 -99.99 -9.99
2019/01/22 23:00 EST    4.04   4.29    4  176    6  27.7  30.6 1035.6 -9.9 -9.999 -99.9 -99.99 -9.99
2019/01/22 23:06 EST    4.15   4.40    3  178    5  27.7  30.6 1035.5 -9.9 -9.999 -99.9 -99.99 -9.99
2019/01/22 23:12 EST    4.25   4.51    3  183    4  27.7  30.7 1035.4 -9.9 -9.999 -99.9 -99.99 -9.99
2019/01/22 23:18 EST    4.34   4.61    4  184    5  27.7  30.6 1035.3 -9.9 -9.999 -99.9 -99.99 -9.99
2019/01/22 23:24 EST    4.43   4.72    4  180    6  27.7  30.6 1035.3 -9.9 -9.999 -99.9 -99.99 -9.99
2019/01/22 23:30 EST    4.52   4.82    4  180    6  28.0  30.6 1035.2 -9.9 -9.999 -99.9 -99.99 -9.99
2019/01/22 23:36 EST    4.60   4.90    4  180    6  28.2  30.6 1035.2 -9.9 -9.999 -99.9 -99.99 -9.99
2019/01/22 23:42 EST    4.67   5.01    6  181    8  28.2  30.6 1035.2 -9.9 -9.999 -99.9 -99.99 -9.99
2019/01/22 23:48 EST    4.73   5.07    5  183    7  28.4  30.6 1035.1 -9.9 -9.999 -99.9 -99.99 -9.99
2019/01/22 23:54 EST    4.79   5.13    6  179    9  28.4  30.6 1034.7 -9.9 -9.999 -99.9 -99.99 -9.99
2019/01/23 00:00 EST    4.84   5.20    6  176    9  28.4  30.6 1034.6 -9.9 -9.999 -99.9 -99.99 -9.99
2019/01/23 00:06 EST    4.88   5.24    7  179   11  28.6  30.4 1034.5 -9.9 -9.999 -99.9 -99.99 -9.99
2019/01/23 00:12 EST    4.91   5.29    6  177    8  28.6  30.4 1034.5 -9.9 -9.999 -99.9 -99.99 -9.99
2019/01/23 00:18 EST    4.94 -99.99 -999 -999 -999 -99.9 -99.9 -999.9 -9.9 -9.999 -99.9 -99.99 -9.99
2019/01/23 00:24 EST    4.95 -99.99 -999 -999 -999 -99.9 -99.9 -999.9 -9.9 -9.999 -99.9 -99.99 -9.99
2019/01/23 00:30 EST    4.96 -99.99 -999 -999 -999 -99.9 -99.9 -999.9 -9.9 -9.999 -99.9 -99.99 -9.99
2019/01/23 00:36 EST    4.96 -99.99 -999 -999 -999 -99.9 -99.9 -999.9 -9.9 -9.999 -99.9 -99.99 -9.99
2019/01/23 00:42 EST    4.94 -99.99 -999 -999 -999 -99.9 -99.9 -999.9 -9.9 -9.999 -99.9 -99.99 -9.99
2019/01/23 00:48 EST    4.92 -99.99 -999 -999 -999 -99.9 -99.9 -999.9 -9.9 -9.999 -99.9 -99.99 -9.99
2019/01/23 00:54 EST    4.89 -99.99 -999 -999 -999 -99.9 -99.9 -999.9 -9.9 -9.999 -99.9 -99.99 -9.99
2019/01/23 01:00 EST    4.85 -99.99 -999 -999 -999 -99.9 -99.9 -999.9 -9.9 -9.999 -99.9 -99.99 -9.99
2019/01/23 01:06 EST    4.81 -99.99 -999 -999 -999 -99.9 -99.9 -999.9 -9.9 -9.999 -99.9 -99.99 -9.99
2019/01/23 01:12 EST    4.75 -99.99 -999 -999 -999 -99.9 -99.9 -999.9 -9.9 -9.999 -99.9 -99.99 -9.99
2019/01/23 01:18 EST    4.69 -99.99 -999 -999 -999 -99.9 -99.9 -999.9 -9.9 -9.999 -99.9 -99.99 -9.99
2019/01/23 01:24 EST    4.61 -99.99 -999 -999 -999 -99.9 -99.9 -999.9 -9.9 -9.999 -99.9 -99.99 -9.99
2019/01/23 01:30 EST    4.54 -99.99 -999 -999 -999 -99.9 -99.9 -999.9 -9.9 -9.999 -99.9 -99.99 -9.99
2019/01/23 01:36 EST    4.45 -99.99 -999 -999 -999 -99.9 -99.9 -999.9 -9.9 -9.999 -99.9 -99.99 -9.99
2019/01/23 01:42 EST    4.36 -99.99 -999 -999 -999 -99.9 -99.9 -999.9 -9.9 -9.999 -99.9 -99.99 -9.99
2019/01/23 01:48 EST    4.26 -99.99 -999 -999 -999 -99.9 -99.9 -999.9 -9.9 -9.999 -99.9 -99.99 -9.99
2019/01/23 01:54 EST    4.16 -99.99 -999 -999 -999 -99.9 -99.9 -999.9 -9.9 -9.999 -99.9 -99.99 -9.99
2019/01/23 02:00 EST    4.05 -99.99 -999 -999 -999 -99.9 -99.9 -999.9 -9.9 -9.999 -99.9 -99.99 -9.99
2019/01/23 02:06 EST    3.94 -99.99 -999 -999 -999 -99.9 -99.9 -999.9 -9.9 -9.999 -99.9 -99.99 -9.99
2019/01/23 02:12 EST    3.83 -99.99 -999 -999 -999 -99.9 -99.9 -999.9 -9.9 -9.999 -99.9 -99.99 -9.99
2019/01/23 02:18 EST    3.71 -99.99 -999 -999 -999 -99.9 -99.9 -999.9 -9.9 -9.999 -99.9 -99.99 -9.99
2019/01/23 02:24 EST    3.59 -99.99 -999 -999 -999 -99.9 -99.9 -999.9 -9.9 -9.999 -99.9 -99.99 -9.99
2019/01/23 02:30 EST    3.47 -99.99 -999 -999 -999 -99.9 -99.9 -999.9 -9.9 -9.999 -99.9 -99.99 -9.99
2019/01/23 02:36 EST    3.35 -99.99 -999 -999 -999 -99.9 -99.9 -999.9 -9.9 -9.999 -99.9 -99.99 -9.99
2019/01/23 02:42 EST    3.22 -99.99 -999 -999 -999 -99.9 -99.9 -999.9 -9.9 -9.999 -99.9 -99.99 -9.99
2019/01/23 02:48 EST    3.10 -99.99 -999 -999 -999 -99.9 -99.9 -999.9 -9.9 -9.999 -99.9 -99.99 -9.99
2019/01/23 02:54 EST    2.98 -99.99 -999 -999 -999 -99.9 -99.9 -999.9 -9.9 -9.999 -99.9 -99.99 -9.99
2019/01/23 03:00 EST    2.86 -99.99 -999 -999 -999 -99.9 -99.9 -999.9 -9.9 -9.999 -99.9 -99.99 -9.99
2019/01/23 03:06 EST    2.73 -99.99 -999 -999 -999 -99.9 -99.9 -999.9 -9.9 -9.999 -99.9 -99.99 -9.99
2019/01/23 03:12 EST    2.61 -99.99 -999 -999 -999 -99.9 -99.9 -999.9 -9.9 -9.999 -99.9 -99.99 -9.99
2019/01/23 03:18 EST    2.49 -99.99 -999 -999 -999 -99.9 -99.9 -999.9 -9.9 -9.999 -99.9 -99.99 -9.99
2019/01/23 03:24 EST    2.38 -99.99 -999 -999 -999 -99.9 -99.9 -999.9 -9.9 -9.999 -99.9 -99.99 -9.99
2019/01/23 03:30 EST    2.26 -99.99 -999 -999 -999 -99.9 -99.9 -999.9 -9.9 -9.999 -99.9 -99.99 -9.99
2019/01/23 03:36 EST    2.15 -99.99 -999 -999 -999 -99.9 -99.9 -999.9 -9.9 -9.999 -99.9 -99.99 -9.99
2019/01/23 03:42 EST    2.03 -99.99 -999 -999 -999 -99.9 -99.9 -999.9 -9.9 -9.999 -99.9 -99.99 -9.99
2019/01/23 03:48 EST    1.92 -99.99 -999 -999 -999 -99.9 -99.9 -999.9 -9.9 -9.999 -99.9 -99.99 -9.99
2019/01/23 03:54 EST    1.81 -99.99 -999 -999 -999 -99.9 -99.9 -999.9 -9.9 -9.999 -99.9 -99.99 -9.99
2019/01/23 04:00 EST    1.71 -99.99 -999 -999 -999 -99.9 -99.9 -999.9 -9.9 -9.999 -99.9 -99.99 -9.99
2019/01/23 04:06 EST    1.60 -99.99 -999 -999 -999 -99.9 -99.9 -999.9 -9.9 -9.999 -99.9 -99.99 -9.99
2019/01/23 04:12 EST    1.50 -99.99 -999 -999 -999 -99.9 -99.9 -999.9 -9.9 -9.999 -99.9 -99.99 -9.99
2019/01/23 04:18 EST    1.40 -99.99 -999 -999 -999 -99.9 -99.9 -999.9 -9.9 -9.999 -99.9 -99.99 -9.99
2019/01/23 04:24 EST    1.30 -99.99 -999 -999 -999 -99.9 -99.9 -999.9 -9.9 -9.999 -99.9 -99.99 -9.99
2019/01/23 04:30 EST    1.20 -99.99 -999 -999 -999 -99.9 -99.9 -999.9 -9.9 -9.999 -99.9 -99.99 -9.99
2019/01/23 04:36 EST    1.11 -99.99 -999 -999 -999 -99.9 -99.9 -999.9 -9.9 -9.999 -99.9 -99.99 -9.99
2019/01/23 04:42 EST    1.01 -99.99 -999 -999 -999 -99.9 -99.9 -999.9 -9.9 -9.999 -99.9 -99.99 -9.99
2019/01/23 04:48 EST    0.92 -99.99 -999 -999 -999 -99.9 -99.9 -999.9 -9.9 -9.999 -99.9 -99.99 -9.99
2019/01/23 04:54 EST    0.83 -99.99 -999 -999 -999 -99.9 -99.9 -999.9 -9.9 -9.999 -99.9 -99.99 -9.99
2019/01/23 05:00 EST    0.74 -99.99 -999 -999 -999 -99.9 -99.9 -999.9 -9.9 -9.999 -99.9 -99.99 -9.99
2019/01/23 05:06 EST    0.65 -99.99 -999 -999 -999 -99.9 -99.9 -999.9 -9.9 -9.999 -99.9 -99.99 -9.99
2019/01/23 05:12 EST    0.56 -99.99 -999 -999 -999 -99.9 -99.9 -999.9 -9.9 -9.999 -99.9 -99.99 -9.99
2019/01/23 05:18 EST    0.48 -99.99 -999 -999 -999 -99.9 -99.9 -999.9 -9.9 -9.999 -99.9 -99.99 -9.99
2019/01/23 05:24 EST    0.39 -99.99 -999 -999 -999 -99.9 -99.9 -999.9 -9.9 -9.999 -99.9 -99.99 -9.99
2019/01/23 05:30 EST    0.31 -99.99 -999 -999 -999 -99.9 -99.9 -999.9 -9.9 -9.999 -99.9 -99.99 -9.99
2019/01/23 05:36 EST    0.22 -99.99 -999 -999 -999 -99.9 -99.9 -999.9 -9.9 -9.999 -99.9 -99.99 -9.99
2019/01/23 05:42 EST    0.14 -99.99 -999 -999 -999 -99.9 -99.9 -999.9 -9.9 -9.999 -99.9 -99.99 -9.99
2019/01/23 05:48 EST    0.06 -99.99 -999 -999 -999 -99.9 -99.9 -999.9 -9.9 -9.999 -99.9 -99.99 -9.99
2019/01/23 05:54 EST   -0.02 -99.99 -999 -999 -999 -99.9 -99.9 -999.9 -9.9 -9.999 -99.9 -99.99 -9.99
2019/01/23 06:00 EST   -0.10 -99.99 -999 -999 -999 -99.9 -99.9 -999.9 -9.9 -9.999 -99.9 -99.99 -9.99
2019/01/23 06:06 EST   -0.18 -99.99 -999 -999 -999 -99.9 -99.9 -999.9 -9.9 -9.999 -99.9 -99.99 -9.99
2019/01/23 06:12 EST   -0.25 -99.99 -999 -999 -999 -99.9 -99.9 -999.9 -9.9 -9.999 -99.9 -99.99 -9.99

Revised: 08/08/2018
NOAA / National Ocean Service
Web site owner: Center for Operational Oceanographic Products and Services